Terminal Aerodrome Forecast
Issued by NWS

Home | Current Version | Previous Version | Text Only | Print | Product List | Glossary On
Versions: 1 2 3 4 5 6 7 8 9 10 11 12 13 14 15 16 17 18 19 20 21 22 23 24 25
383
FTUS42 KILM 250525
TAFCRE
TAF
KCRE 250525Z 2506/2606 22012G26KT P6SM VCTS OVC140CB
     FM250700 22011G20KT P6SM SCT045
     FM250900 23012G20KT P6SM BKN050 PROB30 2517/2521 4SM -TSRA
      BKN050CB
     FM252100 25012G22KT P6SM SCT050 PROB30 2521/2523 4SM -TSRA
      BKN050CB=

USA.gov is the U.S. government's official web portal to all federal, state and local government web resources and services.